Terminal Aerodrome Forecast
Issued by NWS

Home | Current Version | Previous Version | Text Only | Print | Product List | Glossary On
Versions: 1 2 3 4 5 6 7 8 9 10 11 12 13
000
FTUS45 KRIW 252320
TAFBPI
TAF
KBPI 252320Z 2600/2624 28011G17KT P6SM FEW100
     FM260200 35009KT P6SM SKC
     FM261000 VRB05KT P6SM SKC
     FM261700 18010KT P6SM SKC
     FM262000 21012G18KT P6SM SKC=

USA.gov is the U.S. government's official web portal to all federal, state and local government web resources and services.